Time;durP1;ratioP1;P1;durP2;ratioP2;P2;SDS_P1;SDS_P2;PMS_P1;PMS_P2;Temp;Humidity;BMP_temperature;BMP_pressure;BME280_temperature;BME280_humidity;BME280_pressure;Samples;Min_cycle;Max_cycle;Signal;HPM_P1;HPM_P2
2022/08/17 00:01:31;;;;;;;16.83;13.43;;;;;;;25.35;49.98;99316.97;5094668;28;20036;-61
2022/08/17 00:04:18;;;;;;;15.35;13.73;;;;;;;25.35;49.97;99324.22;5114224;28;20073;-62
2022/08/17 00:06:45;;;;;;;15.30;13.77;;;;;;;25.33;49.72;99329.81;5114175;28;20047;-62
2022/08/17 00:09:16;;;;;;;16.50;14.18;;;;;;;25.32;49.99;99327.31;5113568;28;20503;-61
2022/08/17 00:11:47;;;;;;;18.05;15.60;;;;;;;25.29;49.98;99333.06;5096355;28;20051;-61
2022/08/17 00:14:34;;;;;;;17.70;15.77;;;;;;;25.24;49.84;99322.91;5113805;28;20048;-61
2022/08/17 00:17:03;;;;;;;20.02;15.77;;;;;;;25.20;50.33;99316.22;5113883;28;20040;-62
2022/08/17 00:19:31;;;;;;;17.13;15.38;;;;;;;25.16;50.34;99325.72;5113484;28;20052;-63
2022/08/17 00:22:01;;;;;;;18.98;17.00;;;;;;;25.11;50.34;99318.22;5113590;28;20050;-64
2022/08/17 00:24:48;;;;;;;18.40;16.20;;;;;;;25.08;50.44;99322.13;5113841;28;20104;-64
2022/08/17 00:27:15;;;;;;;20.48;17.52;;;;;;;25.04;50.52;99309.28;5113537;28;20043;-61
2022/08/17 00:29:44;;;;;;;20.60;18.40;;;;;;;25.00;50.74;99308.00;5113252;28;20479;-61
2022/08/17 00:32:11;;;;;;;19.55;17.55;;;;;;;24.96;50.84;99300.28;5113314;28;20043;-61
2022/08/17 00:34:58;;;;;;;20.67;18.55;;;;;;;24.94;50.51;99305.03;5113685;28;20509;-63
2022/08/17 00:37:25;;;;;;;20.67;18.58;;;;;;;24.92;50.63;99308.94;5095013;28;20040;-61
2022/08/17 00:39:51;;;;;;;20.55;18.35;;;;;;;24.88;51.04;99313.03;5094783;28;20047;-61
2022/08/17 00:42:18;;;;;;;20.33;18.23;;;;;;;24.83;50.78;99309.06;5095120;28;20043;-62
2022/08/17 00:44:45;;;;;;;21.83;17.75;;;;;;;24.79;50.86;99305.09;5113455;28;20047;-61
2022/08/17 00:47:12;;;;;;;19.65;17.55;;;;;;;24.77;50.95;99303.56;5113002;28;20039;-61
2022/08/17 00:49:39;;;;;;;23.17;19.67;;;;;;;24.74;50.89;99307.50;5094768;28;20113;-61
2022/08/17 00:52:15;;;;;;;23.00;19.17;;;;;;;24.68;51.82;99306.44;5113155;28;20050;-60
2022/08/17 00:54:45;;;;;;;23.60;18.55;;;;;;;24.67;51.04;99301.22;5094774;28;20047;-61
2022/08/17 00:57:20;;;;;;;21.23;19.02;;;;;;;24.60;51.77;99301.97;5112935;28;20044;-62
2022/08/17 00:59:54;;;;;;;22.25;19.67;;;;;;;24.59;51.69;99300.31;5094607;28;20126;-62
2022/08/17 01:02:32;;;;;;;22.23;20.05;;;;;;;24.56;51.49;99298.00;5095834;28;20043;-61
2022/08/17 01:05:07;;;;;;;23.98;19.98;;;;;;;24.55;51.36;99298.19;5112650;28;20043;-60
2022/08/17 01:07:33;;;;;;;23.00;20.52;;;;;;;24.52;51.26;99290.50;5112655;28;20056;-62
2022/08/17 01:10:05;;;;;;;20.05;17.98;;;;;;;24.50;51.23;99297.94;5112208;28;20127;-63
2022/08/17 01:12:34;;;;;;;21.55;19.42;;;;;;;24.46;51.57;99292.94;5112448;28;20113;-62
2022/08/17 01:15:01;;;;;;;22.75;20.15;;;;;;;24.44;51.19;99291.44;5112445;28;20479;-60
2022/08/17 01:17:28;;;;;;;23.45;20.05;;;;;;;24.44;51.42;99296.81;5112402;28;20039;-62
2022/08/17 01:19:55;;;;;;;22.25;19.42;;;;;;;24.41;51.40;99297.22;5112133;28;20101;-62
2022/08/17 01:22:23;;;;;;;23.95;19.67;;;;;;;24.38;51.31;99290.38;5112083;28;20472;-60
2022/08/17 01:24:55;;;;;;;21.35;19.10;;;;;;;24.36;51.86;99296.97;5112669;28;20051;-61
2022/08/17 01:27:23;;;;;;;21.27;19.10;;;;;;;24.36;51.37;99283.53;5112502;28;20048;-61
2022/08/17 01:29:57;;;;;;;21.63;19.38;;;;;;;24.32;51.83;99288.44;5111992;28;20653;-61
2022/08/17 01:32:25;;;;;;;21.77;18.33;;;;;;;24.31;51.63;99284.06;5112210;28;20047;-61
2022/08/17 01:34:52;;;;;;;21.88;19.45;;;;;;;24.31;51.70;99294.84;5111959;28;20036;-62
2022/08/17 01:37:27;;;;;;;19.60;17.58;;;;;;;24.26;51.67;99299.94;5112287;28;20051;-61
2022/08/17 01:40:21;;;;;;;19.90;17.90;;;;;;;24.20;51.54;99302.38;5093586;28;20047;-62
2022/08/17 01:42:58;;;;;;;20.92;18.58;;;;;;;24.21;51.95;99292.44;5112007;28;20040;-61
2022/08/17 01:45:29;;;;;;;21.58;18.35;;;;;;;24.20;51.64;99291.63;5111919;28;20077;-61
2022/08/17 01:47:55;;;;;;;20.58;18.48;;;;;;;24.19;51.26;99291.81;5094098;28;20043;-61
2022/08/17 01:50:27;;;;;;;21.20;16.77;;;;;;;24.15;51.45;99288.63;5111732;28;20069;-61
2022/08/17 01:53:12;;;;;;;21.48;17.88;;;;;;;24.10;51.74;99285.69;5093564;28;20477;-61
2022/08/17 01:55:49;;;;;;;18.70;16.80;;;;;;;24.12;51.50;99285.50;5111689;28;20043;-62
2022/08/17 01:58:16;;;;;;;17.20;15.35;;;;;;;24.13;50.89;99284.47;5093457;28;20868;-61
2022/08/17 02:00:44;;;;;;;18.48;16.48;;;;;;;24.11;50.87;99281.16;5111845;28;20088;-61
2022/08/17 02:03:26;;;;;;;17.45;15.65;;;;;;;24.10;50.77;99290.22;5111830;28;20051;-63
2022/08/17 02:05:53;;;;;;;16.77;14.70;;;;;;;24.07;51.00;99283.38;5111695;28;20047;-61
2022/08/17 02:08:21;;;;;;;17.15;15.02;;;;;;;24.04;51.01;99281.03;5111416;28;20047;-61
2022/08/17 02:11:13;;;;;;;16.23;14.07;;;;;;;24.03;50.89;99284.75;5111950;28;20088;-61
2022/08/17 02:13:41;;;;;;;16.17;13.85;;;;;;;24.02;50.78;99280.38;5093642;28;20055;-61
2022/08/17 02:16:07;;;;;;;14.85;13.35;;;;;;;23.99;50.67;99278.91;5093506;28;20575;-62
2022/08/17 02:18:34;;;;;;;18.65;13.27;;;;;;;23.95;50.87;99283.00;5111351;28;20047;-60
2022/08/17 02:21:01;;;;;;;14.88;13.45;;;;;;;23.93;50.56;99279.66;5111489;28;20047;-63
2022/08/17 02:23:31;;;;;;;15.38;13.57;;;;;;;23.88;50.60;99277.53;5110713;28;20092;-62
2022/08/17 02:25:59;;;;;;;14.70;12.70;;;;;;;23.85;50.84;99274.38;5111332;28;20096;-61
2022/08/17 02:28:27;;;;;;;17.55;13.02;;;;;;;23.80;50.54;99269.56;5111030;28;20419;-61
2022/08/17 02:31:01;;;;;;;15.20;13.40;;;;;;;23.72;50.55;99265.13;5111078;28;20085;-61
2022/08/17 02:33:30;;;;;;;16.90;12.55;;;;;;;23.68;50.57;99272.72;5111298;28;20044;-62
2022/08/17 02:36:11;;;;;;;14.10;12.63;;;;;;;23.65;50.37;99274.94;5094853;28;20047;-62
2022/08/17 02:38:39;;;;;;;17.42;12.70;;;;;;;23.61;50.92;99281.69;5110901;28;20079;-62
2022/08/17 02:41:06;;;;;;;14.18;12.77;;;;;;;23.57;50.87;99278.56;5092836;28;20036;-62
2022/08/17 02:43:33;;;;;;;14.32;12.80;;;;;;;23.54;50.77;99271.72;5110977;28;20048;-61
2022/08/17 02:46:00;;;;;;;14.05;12.75;;;;;;;23.50;50.85;99273.09;5111098;28;20047;-61
2022/08/17 02:48:27;;;;;;;14.48;13.05;;;;;;;23.48;50.89;99267.09;5110868;28;20088;-61
2022/08/17 02:50:57;;;;;;;14.00;12.70;;;;;;;23.45;50.87;99266.59;5110977;28;20048;-60
2022/08/17 02:53:24;;;;;;;14.90;13.18;;;;;;;23.41;51.11;99272.31;5110869;28;20070;-61
2022/08/17 02:55:52;;;;;;;14.20;12.75;;;;;;;23.38;51.20;99267.34;5110840;28;20082;-61
2022/08/17 02:58:19;;;;;;;14.38;12.88;;;;;;;23.36;51.10;99263.19;5092512;28;20088;-62
2022/08/17 03:01:03;;;;;;;14.63;12.48;;;;;;;23.34;51.34;99273.25;5110952;28;20046;-61
2022/08/17 03:03:30;;;;;;;18.58;13.55;;;;;;;23.32;51.49;99262.66;5092523;28;20097;-61
2022/08/17 03:05:57;;;;;;;14.20;12.70;;;;;;;23.30;51.51;99265.53;5110778;28;20048;-62
2022/08/17 03:08:24;;;;;;;14.13;12.48;;;;;;;23.30;51.67;99260.16;5110692;28;20244;-60
2022/08/17 03:10:51;;;;;;;19.02;14.27;;;;;;;23.29;51.76;99263.88;5092609;28;20044;-61
2022/08/17 03:13:17;;;;;;;15.82;14.27;;;;;;;23.27;51.82;99260.53;5110940;28;20457;-61
2022/08/17 03:15:46;;;;;;;15.95;14.02;;;;;;;23.25;52.05;99262.56;5110792;28;20100;-62
2022/08/17 03:18:15;;;;;;;14.85;13.32;;;;;;;23.24;52.02;99258.22;5110770;28;20054;-62
2022/08/17 03:20:50;;;;;;;16.05;14.02;;;;;;;23.21;51.93;99261.25;5111109;28;20035;-61
2022/08/17 03:23:17;;;;;;;15.27;13.68;;;;;;;23.19;51.64;99257.94;5110641;28;20047;-62
2022/08/17 03:25:50;;;;;;;15.55;13.95;;;;;;;23.17;52.05;99268.00;5110841;28;20403;-61
2022/08/17 03:28:18;;;;;;;14.32;12.93;;;;;;;23.12;52.22;99265.88;5110419;28;20082;-62
2022/08/17 03:30:45;;;;;;;18.25;13.85;;;;;;;23.08;51.94;99266.41;5110553;28;20040;-61
2022/08/17 03:33:11;;;;;;;14.93;13.43;;;;;;;23.02;52.19;99258.06;5110456;28;20048;-60
2022/08/17 03:35:39;;;;;;;22.98;13.82;;;;;;;22.98;52.14;99266.66;5112824;28;20475;-63
2022/08/17 03:38:11;;;;;;;15.25;13.60;;;;;;;22.92;52.38;99257.50;5114437;28;20058;-61
2022/08/17 03:40:40;;;;;;;14.65;13.15;;;;;;;22.89;52.21;99261.41;5096618;28;20043;-62
2022/08/17 03:43:24;;;;;;;14.02;12.63;;;;;;;22.84;52.34;99258.38;5114470;28;20100;-61
2022/08/17 03:57:11;;;;;;;16.05;14.10;;;;;;;22.63;52.79;99251.03;5114267;28;20040;-61
2022/08/17 03:59:39;;;;;;;15.13;13.25;;;;;;;22.60;52.92;99254.06;5113771;28;20044;-63
2022/08/17 04:02:20;;;;;;;15.38;13.77;;;;;;;22.56;53.86;99260.78;5114007;28;20043;-62
2022/08/17 04:04:50;;;;;;;16.17;14.52;;;;;;;22.58;53.49;99254.22;5095726;28;20105;-61
2022/08/17 04:07:22;;;;;;;15.32;13.40;;;;;;;22.58;53.57;99253.41;5114130;28;20039;-60
2022/08/17 04:09:49;;;;;;;15.75;14.13;;;;;;;22.59;53.87;99255.06;5095686;28;20735;-61
2022/08/17 04:12:18;;;;;;;15.27;13.77;;;;;;;22.60;53.63;99254.06;5095817;28;20116;-62
2022/08/17 04:14:44;;;;;;;16.17;14.15;;;;;;;22.62;53.87;99252.03;5113765;28;20043;-62
2022/08/17 04:17:25;;;;;;;15.38;13.88;;;;;;;22.62;54.35;99258.22;5113558;28;20055;-61
2022/08/17 04:19:53;;;;;;;16.42;14.73;;;;;;;22.67;53.95;99254.16;5113257;28;20035;-67
2022/08/17 04:22:20;;;;;;;16.05;14.30;;;;;;;22.68;53.84;99266.59;5113394;28;20047;-61
2022/08/17 04:25:08;;;;;;;18.23;15.25;;;;;;;22.69;54.43;99265.56;5113646;28;20112;-61
2022/08/17 04:27:35;;;;;;;17.35;15.20;;;;;;;22.73;54.04;99264.19;5095015;28;20058;-62
2022/08/17 04:30:05;;;;;;;18.15;16.33;;;;;;;22.74;54.12;99265.84;5113192;28;20047;-62
2022/08/17 04:32:48;;;;;;;18.35;16.05;;;;;;;22.76;54.01;99270.03;5113598;28;20062;-61
2022/08/17 04:35:46;;;;;;;18.05;16.08;;;;;;;22.76;54.26;99267.34;5113625;28;20138;-61
2022/08/17 04:38:19;;;;;;;17.58;15.82;;;;;;;22.76;54.73;99267.34;5113289;28;20048;-60
2022/08/17 04:43:34;;;;;;;18.23;16.23;;;;;;;22.76;54.33;99286.13;5113528;28;20044;-62
2022/08/17 04:46:07;;;;;;;20.27;15.77;;;;;;;22.72;54.93;99284.81;5112756;28;20046;-62
2022/08/17 04:48:36;;;;;;;18.42;16.05;;;;;;;22.73;54.47;99275.75;5113034;28;20043;-61
2022/08/17 04:51:11;;;;;;;19.55;16.90;;;;;;;22.72;54.80;99295.53;5095214;28;20442;-60
2022/08/17 04:53:44;;;;;;;19.80;17.20;;;;;;;22.73;55.18;99286.47;5095156;28;20050;-61
2022/08/17 04:56:14;;;;;;;16.85;14.82;;;;;;;22.75;54.72;99283.63;5112912;28;20464;-62
2022/08/17 04:58:45;;;;;;;20.63;17.00;;;;;;;22.77;54.87;99286.97;5112889;28;20609;-62
2022/08/17 05:01:12;;;;;;;18.10;16.20;;;;;;;22.80;54.65;99285.78;5112831;28;20059;-62
2022/08/17 05:03:38;;;;;;;18.27;16.05;;;;;;;22.81;54.60;99287.44;5112800;28;20388;-62
2022/08/17 05:06:05;;;;;;;18.75;16.60;;;;;;;22.82;54.94;99289.09;5112989;28;20105;-60
2022/08/17 05:08:32;;;;;;;18.13;15.73;;;;;;;22.85;54.96;99294.13;5112688;28;20097;-60
2022/08/17 05:10:59;;;;;;;17.88;16.05;;;;;;;22.88;55.00;99301.81;5112765;28;20097;-60
2022/08/17 05:13:30;;;;;;;18.00;16.08;;;;;;;22.90;55.26;99300.63;5112863;28;20047;-60
2022/08/17 05:15:59;;;;;;;15.73;14.23;;;;;;;22.95;55.69;99310.81;5094885;28;20051;-61
2022/08/17 05:18:27;;;;;;;15.95;14.00;;;;;;;22.99;55.63;99301.38;5112394;28;20040;-61
2022/08/17 05:20:54;;;;;;;14.73;13.23;;;;;;;23.05;55.12;99310.56;5094393;28;20039;-61
2022/08/17 05:23:23;;;;;;;13.95;12.63;;;;;;;23.10;55.32;99315.41;5112613;28;20084;-61
2022/08/17 05:25:53;;;;;;;14.20;12.70;;;;;;;23.15;55.39;99316.53;5094009;28;20089;-60
2022/08/17 05:28:21;;;;;;;13.35;12.02;;;;;;;23.18;55.23;99312.66;5112356;28;20048;-62
2022/08/17 05:30:54;;;;;;;14.30;12.30;;;;;;;23.23;55.02;99306.72;5112297;28;20039;-61
2022/08/17 05:33:27;;;;;;;13.13;11.82;;;;;;;23.24;54.85;99309.22;5112395;28;20096;-61
2022/08/17 05:35:56;;;;;;;13.35;11.75;;;;;;;23.28;54.81;99315.06;5112923;28;20044;-62
2022/08/17 05:38:25;;;;;;;12.35;10.98;;;;;;;23.30;55.00;99311.19;5110988;28;20484;-63
2022/08/17 05:40:53;;;;;;;15.35;12.07;;;;;;;23.35;54.91;99312.50;5111593;28;20036;-61
2022/08/17 05:43:25;;;;;;;13.77;12.35;;;;;;;23.36;55.31;99312.34;5112390;28;20377;-61
2022/08/17 05:46:02;;;;;;;14.00;12.43;;;;;;;23.38;55.51;99310.31;5112324;28;20047;-61
2022/08/17 05:48:38;;;;;;;12.52;11.38;;;;;;;23.43;55.05;99315.13;5112050;28;20052;-61
2022/08/17 05:51:15;;;;;;;13.02;11.77;;;;;;;23.51;54.69;99315.03;5111958;28;20046;-62
2022/08/17 05:53:51;;;;;;;12.93;11.23;;;;;;;23.53;54.93;99313.03;5111988;28;20050;-61
2022/08/17 05:56:49;;;;;;;12.38;11.02;;;;;;;23.57;55.17;99310.78;5112033;28;20047;-61
2022/08/17 05:59:29;;;;;;;13.40;11.48;;;;;;;23.66;54.99;99306.19;5111539;28;20035;-61
2022/08/17 06:02:26;;;;;;;11.68;10.48;;;;;;;23.71;54.65;99309.16;5112182;28;20039;-61
2022/08/17 06:05:08;;;;;;;14.80;10.73;;;;;;;23.80;55.10;99308.03;5069669;28;20039;-60
2022/08/17 06:07:42;;;;;;;13.45;11.13;;;;;;;23.89;54.57;99310.63;5111802;28;20059;-62
2022/08/17 06:10:24;;;;;;;11.63;10.50;;;;;;;23.96;54.59;99306.19;5111120;28;20047;-62
2022/08/17 06:13:05;;;;;;;12.07;10.30;;;;;;;24.05;54.65;99310.44;5111670;28;20498;-63
2022/08/17 06:16:00;;;;;;;13.10;10.23;;;;;;;24.12;54.73;99315.94;5111552;28;20048;-62
2022/08/17 06:18:35;;;;;;;15.20;9.57;;;;;;;24.25;54.85;99311.75;5111944;28;20051;-61
2022/08/17 06:21:05;;;;;;;10.32;8.70;;;;;;;24.33;53.92;99312.44;5111436;28;20047;-61
2022/08/17 06:23:36;;;;;;;9.23;7.63;;;;;;;24.44;53.53;99307.59;5093083;28;20044;-64
2022/08/17 06:26:13;;;;;;;9.43;8.00;;;;;;;24.51;52.90;99303.13;5111301;28;20055;-62
2022/08/17 06:28:53;;;;;;;8.48;7.47;;;;;;;24.63;52.60;99299.94;5110924;28;20116;-61
2022/08/17 06:31:30;;;;;;;8.82;7.72;;;;;;;24.72;52.43;99299.63;5110862;28;20050;-63
2022/08/17 06:34:01;;;;;;;10.90;7.50;;;;;;;24.85;52.33;99298.94;5111283;28;20047;-62
2022/08/17 06:36:49;;;;;;;9.05;6.72;;;;;;;24.95;51.98;99295.94;5111146;28;20073;-62
2022/08/17 06:39:51;;;;;;;9.23;6.97;;;;;;;25.04;52.08;99298.50;5110832;28;20545;-62
2022/08/17 06:42:46;;;;;;;11.13;7.10;;;;;;;25.14;51.75;99296.28;5111231;28;20093;-64
2022/08/17 06:45:40;;;;;;;6.85;6.07;;;;;;;25.29;51.52;99290.81;5111430;28;20047;-61
2022/08/17 06:48:38;;;;;;;8.85;6.35;;;;;;;25.36;51.28;99294.41;5093013;28;20050;-62
2022/08/17 06:51:29;;;;;;;6.75;5.72;;;;;;;25.49;51.16;99295.53;5110874;28;20093;-62
2022/08/17 06:54:05;;;;;;;9.13;5.55;;;;;;;25.60;50.58;99296.88;5110162;28;20104;-62
2022/08/17 06:56:47;;;;;;;9.60;6.18;;;;;;;25.67;50.34;99286.94;5109568;28;20050;-61
2022/08/17 06:59:30;;;;;;;5.80;4.80;;;;;;;25.80;50.76;99286.19;5109131;28;20055;-62
2022/08/17 07:02:40;;;;;;;8.80;4.40;;;;;;;25.94;50.52;99291.66;5109215;28;20517;-62
2022/08/17 07:05:22;;;;;;;4.78;4.32;;;;;;;26.04;50.36;99292.09;5102590;28;20051;-63
2022/08/17 07:08:06;;;;;;;6.07;4.38;;;;;;;26.09;50.15;99294.22;5109547;28;20036;-63
2022/08/17 07:11:05;;;;;;;6.18;4.97;;;;;;;26.17;49.85;99294.03;5095479;28;20051;-62
2022/08/17 07:14:11;;;;;;;9.10;4.80;;;;;;;26.24;49.55;99302.97;5113913;28;20409;-62
2022/08/17 07:16:49;;;;;;;8.93;5.28;;;;;;;26.34;49.91;99294.53;5076609;28;20054;-62
2022/08/17 07:19:18;;;;;;;6.00;5.22;;;;;;;26.38;49.49;99303.88;5096927;28;20051;-62
2022/08/17 07:22:18;;;;;;;8.25;4.97;;;;;;;26.40;49.42;99296.41;5115133;28;20441;-63
2022/08/17 07:24:58;;;;;;;6.35;5.10;;;;;;;26.47;49.04;99292.91;5114534;28;20052;-62
2022/08/17 07:27:27;;;;;;;8.27;4.88;;;;;;;26.52;49.08;99298.53;5114727;28;20044;-63
2022/08/17 07:30:00;;;;;;;6.43;4.95;;;;;;;26.55;50.07;99295.41;5096608;28;20051;-61
2022/08/17 07:32:40;;;;;;;5.63;4.70;;;;;;;26.60;49.70;99302.88;5114807;28;20047;-62
2022/08/17 07:35:19;;;;;;;8.25;4.70;;;;;;;26.66;49.45;99312.88;5096702;28;20043;-63
2022/08/17 07:38:07;;;;;;;5.00;4.43;;;;;;;26.76;49.83;99307.91;5114907;28;20066;-63
2022/08/17 07:41:03;;;;;;;6.22;4.22;;;;;;;26.87;48.39;99308.34;5114488;28;20054;-62
2022/08/17 07:43:39;;;;;;;7.88;3.80;;;;;;;26.96;48.59;99306.31;5114560;28;20073;-63
2022/08/17 07:49:08;;;;;;;5.65;3.72;;;;;;;27.13;47.81;99307.56;5114704;28;20050;-63
2022/08/17 07:51:39;;;;;;;8.35;3.45;;;;;;;27.18;47.19;99315.88;5114763;28;20056;-62
2022/08/17 07:54:14;;;;;;;5.95;3.50;;;;;;;27.23;46.76;99306.31;5114168;28;20055;-63
2022/08/17 07:56:43;;;;;;;4.82;3.67;;;;;;;27.34;47.10;99310.25;5114527;28;20518;-63
2022/08/17 07:59:15;;;;;;;3.97;3.35;;;;;;;27.38;46.50;99312.34;5114070;28;20039;-64
2022/08/17 08:01:45;;;;;;;4.68;3.55;;;;;;;27.49;46.57;99304.63;5096231;28;20058;-63
2022/08/17 08:04:41;;;;;;;3.75;3.10;;;;;;;27.54;46.48;99307.50;5096029;28;20074;-65
2022/08/17 08:07:36;;;;;;;5.50;3.42;;;;;;;27.68;45.84;99311.06;5098814;28;20059;-63
2022/08/17 08:10:12;;;;;;;4.40;3.20;;;;;;;27.77;45.89;99308.97;5113740;28;20097;-63
2022/08/17 08:12:43;;;;;;;3.92;3.10;;;;;;;27.88;45.41;99308.31;5113943;28;20047;-63
2022/08/17 08:15:17;;;;;;;5.32;3.15;;;;;;;27.99;45.50;99314.09;5114078;28;20043;-63
2022/08/17 08:17:54;;;;;;;3.85;2.70;;;;;;;28.08;44.76;99312.81;5114151;28;20457;-64
2022/08/17 08:20:48;;;;;;;7.28;2.60;;;;;;;28.20;45.17;99316.53;5113471;28;20097;-62
2022/08/17 08:23:45;;;;;;;3.50;2.85;;;;;;;28.35;45.50;99316.28;5113250;28;20040;-63
2022/08/17 08:26:36;;;;;;;7.60;3.10;;;;;;;28.53;45.02;99330.13;5113681;28;20043;-62
2022/08/17 08:29:34;;;;;;;3.95;3.00;;;;;;;28.68;45.48;99327.13;5113245;28;20102;-65
2022/08/17 08:32:07;;;;;;;3.47;3.08;;;;;;;28.86;43.85;99323.69;5113610;28;20048;-63
2022/08/17 08:34:54;;;;;;;4.95;3.17;;;;;;;28.96;44.11;99324.03;5113349;28;20548;-63
2022/08/17 08:37:31;;;;;;;3.65;3.05;;;;;;;29.11;43.60;99320.16;5096350;28;20074;-63
2022/08/17 08:40:35;;;;;;;4.93;3.33;;;;;;;29.18;43.10;99318.25;5112944;28;20415;-62
2022/08/17 08:43:21;;;;;;;5.10;3.20;;;;;;;29.31;43.44;99320.03;5113363;28;20039;-62
2022/08/17 08:46:18;;;;;;;3.15;2.72;;;;;;;29.34;42.86;99321.47;5113150;28;20043;-63
2022/08/17 08:49:00;;;;;;;5.10;3.13;;;;;;;29.39;42.88;99324.31;5095138;28;20104;-64
2022/08/17 08:51:48;;;;;;;5.25;3.10;;;;;;;29.49;42.24;99318.41;5113190;28;20048;-63
2022/08/17 08:54:19;;;;;;;4.30;2.75;;;;;;;29.53;42.12;99316.94;5112926;28;20127;-63
2022/08/17 08:57:20;;;;;;;3.25;2.95;;;;;;;29.54;41.93;99325.88;5112863;28;20044;-62
2022/08/17 09:00:15;;;;;;;8.07;3.15;;;;;;;29.55;43.05;99322.13;5112776;28;20040;-63
2022/08/17 09:03:04;;;;;;;3.97;3.50;;;;;;;29.61;41.80;99323.94;5094750;28;20051;-63
2022/08/17 09:05:59;;;;;;;4.45;3.08;;;;;;;29.57;41.90;99323.56;5112709;28;20503;-64
2022/08/17 09:08:46;;;;;;;6.57;3.28;;;;;;;29.58;42.67;99322.50;5112619;28;20086;-63
2022/08/17 09:11:29;;;;;;;4.88;3.22;;;;;;;29.61;42.01;99318.53;5112524;28;20089;-63
2022/08/17 09:14:07;;;;;;;5.03;3.55;;;;;;;29.62;42.22;99303.91;5112822;28;20096;-63
2022/08/17 09:17:00;;;;;;;5.93;3.47;;;;;;;29.58;42.92;99318.97;5112711;28;20075;-63
2022/08/17 09:19:29;;;;;;;5.45;3.38;;;;;;;29.62;42.53;99322.88;5112331;28;20442;-63
2022/08/17 09:22:10;;;;;;;6.30;3.33;;;;;;;29.62;42.29;99320.16;5112929;28;20065;-64
2022/08/17 09:24:40;;;;;;;4.93;3.47;;;;;;;29.68;42.48;99322.00;5112666;28;20048;-63
2022/08/17 09:27:12;;;;;;;4.13;3.67;;;;;;;29.70;42.82;99322.59;5112290;28;20047;-63
2022/08/17 09:29:48;;;;;;;6.45;3.50;;;;;;;29.75;42.34;99316.50;5112093;28;20039;-64
2022/08/17 09:32:30;;;;;;;5.22;3.65;;;;;;;29.81;42.46;99315.59;5112183;28;20048;-62
2022/08/17 09:35:01;;;;;;;5.10;3.20;;;;;;;29.91;42.82;99313.16;5094401;28;20047;-63
2022/08/17 09:38:12;;;;;;;6.88;3.35;;;;;;;30.00;43.03;99316.41;5112269;28;20047;-63
2022/08/17 09:40:45;;;;;;;5.68;3.58;;;;;;;30.19;42.71;99311.00;5028949;28;20102;-64
2022/08/17 09:43:30;;;;;;;5.05;2.95;;;;;;;30.37;42.57;99314.72;5029105;28;20053;-62
2022/08/17 09:46:01;;;;;;;4.85;2.90;;;;;;;30.59;41.84;99311.50;5085927;28;20055;-63
2022/08/17 09:48:56;;;;;;;5.40;2.88;;;;;;;30.77;42.12;99303.34;5093710;28;20269;-63
2022/08/17 09:51:29;;;;;;;3.88;2.95;;;;;;;31.02;41.30;99298.78;5112062;28;20112;-64
2022/08/17 09:53:56;;;;;;;2.90;2.60;;;;;;;31.18;41.15;99300.78;5112206;28;20051;-63
2022/08/17 09:56:57;;;;;;;5.88;3.05;;;;;;;31.32;41.00;99308.75;5096939;28;20090;-63
2022/08/17 10:00:14;;;;;;;5.03;2.88;;;;;;;31.48;40.73;99304.50;5111443;28;20480;-63
2022/08/17 10:03:03;;;;;;;3.20;2.90;;;;;;;31.63;40.90;99303.16;5111514;28;20050;-63
2022/08/17 10:05:46;;;;;;;4.43;2.50;;;;;;;31.77;40.86;99306.47;5111549;28;20467;-63
2022/08/17 10:08:31;;;;;;;5.43;2.40;;;;;;;31.87;40.53;99306.66;5111311;28;20400;-61
2022/08/17 10:11:13;;;;;;;3.25;2.42;;;;;;;32.01;39.25;99303.72;5093351;28;20039;-62
2022/08/17 10:13:50;;;;;;;4.80;2.70;;;;;;;32.06;38.36;99301.91;5111380;28;20051;-63
2022/08/17 10:16:37;;;;;;;3.72;2.70;;;;;;;32.07;37.70;99300.03;5111774;28;20130;-62
2022/08/17 10:19:25;;;;;;;3.00;2.50;;;;;;;32.07;38.35;99298.13;5111348;28;20127;-61
2022/08/17 10:28:07;;;;;;;3.55;2.53;;;;;;;32.06;38.20;99295.66;5111827;28;20090;-63
2022/08/17 10:30:55;;;;;;;3.50;2.60;;;;;;;32.05;38.58;99294.84;5095162;28;20048;-62
2022/08/17 10:34:16;;;;;;;4.97;2.60;;;;;;;32.07;38.90;99295.41;5096159;28;20134;-61
2022/08/17 10:37:18;;;;;;;5.97;2.70;;;;;;;32.09;38.77;99295.16;5093284;28;20487;-63
2022/08/17 10:40:12;;;;;;;3.33;2.72;;;;;;;32.17;38.58;99299.41;5110929;28;20537;-61
2022/08/17 10:42:59;;;;;;;3.05;2.75;;;;;;;32.19;39.27;99291.81;5111098;28;20467;-62
2022/08/17 10:45:35;;;;;;;5.00;2.70;;;;;;;32.26;38.50;99288.94;5092662;28;20055;-63
2022/08/17 10:48:05;;;;;;;3.45;2.90;;;;;;;32.32;38.88;99288.81;5111082;28;20047;-63
2022/08/17 10:50:45;;;;;;;3.35;3.05;;;;;;;32.35;39.45;99292.94;5110957;28;20426;-61
2022/08/17 10:53:48;;;;;;;3.72;2.75;;;;;;;32.44;39.70;99296.09;5111030;28;20483;-63
2022/08/17 10:56:16;;;;;;;;;;;;;;;32.53;40.11;99300.13;5028490;28;20042;-63
2022/08/17 10:58:55;;;;;;;3.08;2.55;;;;;;;32.61;38.00;99294.28;5095540;28;19923;-63
2022/08/17 11:01:47;;;;;;;3.65;2.65;;;;;;;32.56;38.30;99296.91;5111045;28;20403;-62
2022/08/17 11:04:16;;;;;;;4.97;2.70;;;;;;;32.55;37.37;99297.16;5110977;28;20100;-62
2022/08/17 11:07:25;;;;;;;3.15;2.60;;;;;;;32.42;37.85;99288.19;5111130;28;20044;-63
2022/08/17 11:10:17;;;;;;;4.32;2.70;;;;;;;32.32;37.87;99286.09;5092367;28;20050;-62
2022/08/17 11:12:44;;;;;;;3.50;2.78;;;;;;;32.29;37.17;99285.75;5111128;28;20043;-63
2022/08/17 11:15:40;;;;;;;3.33;2.70;;;;;;;32.17;37.33;99285.81;5110807;28;20044;-63
2022/08/17 11:18:30;;;;;;;2.83;2.53;;;;;;;32.04;37.54;99285.03;5110645;28;20472;-63
2022/08/17 11:21:29;;;;;;;4.10;2.60;;;;;;;31.94;38.00;99288.34;5092829;28;20081;-62
2022/08/17 11:24:06;;;;;;;3.10;2.70;;;;;;;31.91;37.04;99290.75;5110469;28;20483;-62
2022/08/17 11:26:35;;;;;;;4.10;2.60;;;;;;;31.85;37.72;99287.06;5110509;28;20436;-62
2022/08/17 11:29:08;;;;;;;3.85;2.90;;;;;;;31.77;37.75;99282.78;5092227;28;20437;-62
2022/08/17 11:31:42;;;;;;;3.03;2.65;;;;;;;31.72;37.87;99288.13;5092601;28;20043;-63
2022/08/17 11:34:20;;;;;;;5.90;3.17;;;;;;;31.70;37.88;99277.47;5110527;28;20063;-63
2022/08/17 11:37:05;;;;;;;5.45;2.97;;;;;;;31.69;38.10;99285.91;5110552;28;20036;-63
2022/08/17 11:39:44;;;;;;;4.55;3.08;;;;;;;31.66;37.88;99289.09;5110299;28;20044;-62
2022/08/17 11:42:47;;;;;;;4.32;3.38;;;;;;;31.62;38.50;99287.91;5110517;28;20043;-62
2022/08/17 11:45:31;;;;;;;4.57;3.40;;;;;;;31.65;37.59;99298.34;5096463;28;20048;-62
2022/08/17 11:51:34;;;;;;;6.95;3.00;;;;;;;31.56;37.70;99293.25;5110329;28;20495;-63
2022/08/17 11:54:06;;;;;;;4.40;2.95;;;;;;;31.54;37.69;99295.38;5110525;28;20101;-62
2022/08/17 11:56:53;;;;;;;3.80;2.50;;;;;;;31.53;38.28;99293.72;5113124;28;20549;-64
2022/08/17 11:59:42;;;;;;;4.03;3.17;;;;;;;31.45;38.50;99294.09;5114334;28;20330;-62
2022/08/17 12:02:30;;;;;;;5.55;3.20;;;;;;;31.42;38.35;99298.09;5083204;28;20051;-63
2022/08/17 12:05:13;;;;;;;3.40;2.60;;;;;;;31.41;38.79;99304.63;5096171;28;20046;-63
2022/08/17 12:08:04;;;;;;;4.22;2.83;;;;;;;31.43;38.16;99301.66;5095755;28;20507;-63
2022/08/17 12:10:34;;;;;;;5.35;2.65;;;;;;;31.42;37.60;99294.53;5114005;28;20387;-62
2022/08/17 12:13:09;;;;;;;7.28;3.00;;;;;;;31.38;37.38;99294.19;5114054;28;20043;-62
2022/08/17 12:15:48;;;;;;;4.20;2.50;;;;;;;31.36;37.83;99301.78;5113721;28;20453;-62
2022/08/17 12:18:27;;;;;;;4.72;2.47;;;;;;;31.33;37.41;99299.53;5113548;28;20055;-63
2022/08/17 12:21:11;;;;;;;5.88;2.75;;;;;;;31.29;37.81;99304.56;5113979;28;20430;-61
2022/08/17 12:23:56;;;;;;;4.30;2.70;;;;;;;31.25;37.87;99297.13;5095325;28;20047;-62
2022/08/17 12:26:34;;;;;;;3.78;2.42;;;;;;;31.24;37.39;99298.19;5113601;28;20112;-62
2022/08/17 12:29:15;;;;;;;4.22;2.50;;;;;;;31.20;37.77;99292.38;5095064;28;20047;-64
2022/08/17 12:32:02;;;;;;;4.95;2.42;;;;;;;31.24;37.51;99298.19;5113614;28;20449;-62
2022/08/17 12:38:16;;;;;;;2.80;2.30;;;;;;;31.15;38.09;99284.97;5112535;28;20086;-63
2022/08/17 12:41:25;;;;;;;3.45;2.80;;;;;;;31.11;38.17;99291.94;5113407;28;20046;-61
2022/08/17 12:44:03;;;;;;;3.83;2.28;;;;;;;31.05;38.76;99282.81;5113254;28;20104;-62